KAAO

Colonel James Jabara Airport

Wichita, Kansas, USA
METAR KAAO 231054Z AUTO 32007KT 10SM CLR M04/M07 A3009 RMK AO2 SLP204 T10441067
Observed Flight Rules
Jan-23 @ 10:54 UTC (55 minutes ago) Visual Flight Rules
Wind Visibility Clouds
320° at 7 knots 10 miles
  • Clear skies
Temperatures Readings
Current -4°C / 25°F
Dewpoint -7°C / 19°F
Humidity 80%
Altimeter 30.09" Hg
Pressure 1020.4 hPa
Elevation 434
METAR KAAO 231054Z AUTO 32007KT 10SM CLR M04/M07 A3009 RMK AO2 SLP204 T10441067
Observed Flight Rules
Jan-23 @ 10:54 UTC
(55 minutes ago)
VFR
Wind Visibility
320° at 7 knots 10 miles
Clouds
  • Clear skies
Temperature Dewpoint
-4°C / 25°F -7°C / 19°F
Humidity Altimeter Pressure
80% 30.09" Hg 1020.4 hPa